createdAt,value
2019-03-25T00:02:25.002Z,7.56
2019-03-25T00:04:53.695Z,7.52
2019-03-25T00:07:21.330Z,7.40
2019-03-25T00:09:48.732Z,7.40
2019-03-25T00:12:16.019Z,7.44
2019-03-25T00:14:43.319Z,7.30
2019-03-25T00:17:10.802Z,7.23
2019-03-25T00:19:38.166Z,7.12
2019-03-25T00:22:05.495Z,7.13
2019-03-25T00:24:38.948Z,7.14
2019-03-25T00:27:04.867Z,7.14
2019-03-25T00:29:32.264Z,7.19
2019-03-25T00:31:59.942Z,7.07
2019-03-25T00:34:27.246Z,7.05
2019-03-25T00:36:59.400Z,7.04
2019-03-25T00:39:26.684Z,6.98
2019-03-25T00:41:53.971Z,6.96
2019-03-25T00:44:21.342Z,7.03
2019-03-25T00:46:48.859Z,7.03
2019-03-25T00:49:22.109Z,7.10
2019-03-25T00:51:49.415Z,6.89
2019-03-25T00:54:16.786Z,6.75
2019-03-25T00:56:44.082Z,6.81
2019-03-25T00:59:11.482Z,6.74
2019-03-25T01:01:38.744Z,6.77
2019-03-25T01:04:06.220Z,6.82
2019-03-25T01:06:33.468Z,6.91
2019-03-25T01:09:01.175Z,6.95
2019-03-25T01:11:28.862Z,6.92
2019-03-25T01:13:56.330Z,6.92
2019-03-25T01:16:23.750Z,6.66
2019-03-25T01:18:53.052Z,6.57
2019-03-25T01:21:22.682Z,6.31
2019-03-25T01:23:50.084Z,6.31
2019-03-25T01:26:17.365Z,6.58
2019-03-25T01:28:44.663Z,6.61
2019-03-25T01:31:15.268Z,6.83
2019-03-25T01:33:42.739Z,6.83
2019-03-25T01:36:10.220Z,6.75
2019-03-25T01:38:37.499Z,6.72
2019-03-25T01:41:05.305Z,6.55
2019-03-25T01:43:32.599Z,6.55
2019-03-25T01:46:00.012Z,6.54
2019-03-25T01:48:27.395Z,6.47
2019-03-25T01:50:54.657Z,6.48
2019-03-25T01:53:23.876Z,6.48
2019-03-25T01:55:51.162Z,6.52
2019-03-25T01:58:18.559Z,6.54
2019-03-25T02:00:48.228Z,6.48
2019-03-25T02:03:15.478Z,6.30
2019-03-25T02:05:43.254Z,6.30
2019-03-25T02:08:12.960Z,6.02
2019-03-25T02:10:40.624Z,6.02
2019-03-25T02:13:07.904Z,5.77
2019-03-25T02:15:35.640Z,5.77
2019-03-25T02:18:02.971Z,5.73
2019-03-25T02:20:32.579Z,5.73
2019-03-25T02:23:00.050Z,5.59
2019-03-25T02:25:27.616Z,5.55
2019-03-25T02:27:55.038Z,5.55
2019-03-25T02:30:22.328Z,5.68
2019-03-25T02:32:49.593Z,5.68
2019-03-25T02:35:17.340Z,5.73
2019-03-25T02:37:45.009Z,5.59
2019-03-25T02:40:12.312Z,5.48
2019-03-25T02:42:39.726Z,5.45
2019-03-25T02:45:07.020Z,5.45
2019-03-25T02:47:34.742Z,5.50
2019-03-25T02:50:02.048Z,5.60
2019-03-25T02:52:29.403Z,5.46
2019-03-25T02:54:56.700Z,5.34
2019-03-25T02:57:24.313Z,5.28
2019-03-25T02:59:51.575Z,5.27
2019-03-25T03:02:18.955Z,5.28
2019-03-25T03:04:46.277Z,5.30
2019-03-25T03:07:13.539Z,5.30
2019-03-25T03:09:44.356Z,5.26
2019-03-25T03:12:11.600Z,5.27
2019-03-25T03:14:38.920Z,5.13
2019-03-25T03:17:06.232Z,5.22
2019-03-25T03:19:33.489Z,5.23
2019-03-25T03:22:00.772Z,5.31
2019-03-25T03:24:28.263Z,5.36
2019-03-25T03:26:55.676Z,5.21
2019-03-25T03:29:23.336Z,5.21
2019-03-25T03:31:51.746Z,5.17
2019-03-25T03:34:19.008Z,5.15
2019-03-25T03:36:46.358Z,5.15
2019-03-25T03:39:13.638Z,4.72
2019-03-25T03:41:40.927Z,4.72
2019-03-25T03:44:08.224Z,4.71
2019-03-25T03:46:35.554Z,4.76
2019-03-25T03:49:02.891Z,4.82
2019-03-25T03:51:30.566Z,4.78
2019-03-25T03:53:57.904Z,4.70
2019-03-25T03:56:25.221Z,4.71
2019-03-25T03:58:52.522Z,4.75
2019-03-25T04:01:22.017Z,4.75
2019-03-25T04:03:49.384Z,4.73
2019-03-25T04:06:16.680Z,4.70
2019-03-25T04:08:43.987Z,4.76
2019-03-25T04:11:11.283Z,4.81
2019-03-25T04:13:40.238Z,4.89
2019-03-25T04:16:07.650Z,4.79
2019-03-25T04:18:35.099Z,4.85
2019-03-25T04:21:02.434Z,4.72
2019-03-25T04:23:29.948Z,4.63
2019-03-25T04:25:57.346Z,4.63
2019-03-25T04:28:24.627Z,4.65
2019-03-25T04:30:51.985Z,4.70
2019-03-25T04:33:19.383Z,4.78
2019-03-25T04:35:46.861Z,4.81
2019-03-25T04:38:14.183Z,4.67
2019-03-25T04:40:41.572Z,4.58
2019-03-25T04:43:10.985Z,4.51
2019-03-25T04:45:38.384Z,4.41
2019-03-25T04:48:05.814Z,4.47
2019-03-25T04:50:33.096Z,4.17
2019-03-25T04:53:02.901Z,3.94
2019-03-25T04:55:30.293Z,3.95
2019-03-25T04:57:57.724Z,4.03
2019-03-25T05:00:37.348Z,4.31
2019-03-25T05:03:04.720Z,4.54
2019-03-25T05:05:31.993Z,4.52
2019-03-25T05:07:59.360Z,4.46
2019-03-25T05:10:26.687Z,4.59
2019-03-25T05:12:54.230Z,4.70
2019-03-25T05:15:21.811Z,4.68
2019-03-25T05:17:49.179Z,4.66
2019-03-25T05:20:16.677Z,4.65
2019-03-25T05:22:44.080Z,4.56
2019-03-25T05:25:11.356Z,4.48
2019-03-25T05:27:38.715Z,4.50
2019-03-25T05:30:06.289Z,4.41
2019-03-25T05:32:33.575Z,4.52
2019-03-25T05:35:00.860Z,4.68
2019-03-25T05:37:28.259Z,4.67
2019-03-25T05:39:55.615Z,4.67
2019-03-25T05:42:23.022Z,4.57
2019-03-25T05:44:50.389Z,4.50
2019-03-25T05:47:17.679Z,4.54
2019-03-25T05:49:50.784Z,4.85
2019-03-25T05:52:18.050Z,4.99
2019-03-25T05:54:45.328Z,5.07
2019-03-25T05:57:12.819Z,5.24
2019-03-25T05:59:40.213Z,5.25
2019-03-25T06:02:07.595Z,5.05
2019-03-25T06:04:38.734Z,4.82
2019-03-25T06:07:06.387Z,4.81
2019-03-25T06:09:33.653Z,5.06
2019-03-25T06:12:01.657Z,5.26
2019-03-25T06:14:29.152Z,5.43
2019-03-25T06:16:56.523Z,5.48
2019-03-25T06:19:23.936Z,5.74
2019-03-25T06:21:51.241Z,5.74
2019-03-25T06:24:18.520Z,5.76
2019-03-25T06:26:46.175Z,5.90
2019-03-25T06:29:13.429Z,6.03
2019-03-25T06:31:40.837Z,6.01
2019-03-25T06:34:09.624Z,6.03
2019-03-25T06:36:37.646Z,6.03
2019-03-25T06:39:05.497Z,5.86
2019-03-25T06:41:34.015Z,5.61
2019-03-25T06:44:03.734Z,5.66
2019-03-25T06:46:34.317Z,5.65
2019-03-25T06:49:01.723Z,5.80
2019-03-25T06:51:29.109Z,5.90
2019-03-25T06:53:57.975Z,6.19
2019-03-25T06:56:25.230Z,6.35
2019-03-25T06:58:52.644Z,6.51
2019-03-25T07:01:19.933Z,6.61
2019-03-25T07:03:47.344Z,6.79
2019-03-25T07:06:14.879Z,6.83
2019-03-25T07:08:42.220Z,6.83
2019-03-25T07:11:09.495Z,6.97
2019-03-25T07:13:36.906Z,6.92
2019-03-25T07:16:04.291Z,6.86
2019-03-25T07:18:31.676Z,6.87
2019-03-25T07:20:59.055Z,6.95
2019-03-25T07:23:26.446Z,6.97
2019-03-25T07:25:53.941Z,7.07
2019-03-25T07:28:21.809Z,6.94
2019-03-25T07:30:49.344Z,7.08
2019-03-25T07:33:16.676Z,7.28
2019-03-25T07:35:44.100Z,7.59
2019-03-25T07:38:14.349Z,7.59
2019-03-25T07:40:42.055Z,7.53
2019-03-25T07:43:09.380Z,7.71
2019-03-25T07:45:36.761Z,7.71
2019-03-25T07:48:04.373Z,7.99
2019-03-25T07:50:31.711Z,8.14
2019-03-25T07:52:59.269Z,8.04
2019-03-25T07:55:26.700Z,8.04
2019-03-25T07:57:57.120Z,8.07
2019-03-25T08:00:24.638Z,7.92
2019-03-25T08:02:51.990Z,8.12
2019-03-25T08:05:19.381Z,8.12
2019-03-25T08:07:46.790Z,8.14
2019-03-25T08:10:20.756Z,8.10
2019-03-25T08:12:48.151Z,7.92
2019-03-25T08:15:15.802Z,7.92
2019-03-25T08:17:43.479Z,8.01
2019-03-25T08:20:11.104Z,8.01
2019-03-25T08:22:38.421Z,7.91
2019-03-25T08:25:06.321Z,8.06
2019-03-25T08:27:33.743Z,8.06
2019-03-25T08:30:01.323Z,8.10
2019-03-25T08:32:28.609Z,8.25
2019-03-25T08:34:55.902Z,8.25
2019-03-25T08:37:24.529Z,8.16
2019-03-25T08:39:51.885Z,8.03
2019-03-25T08:42:19.192Z,8.03
2019-03-25T08:44:46.789Z,8.09
2019-03-25T08:47:14.196Z,8.24
2019-03-25T08:49:41.611Z,8.31
2019-03-25T08:52:09.102Z,8.31
2019-03-25T08:54:37.899Z,8.23
2019-03-25T08:57:05.589Z,8.25
2019-03-25T08:59:32.886Z,8.25
2019-03-25T09:02:00.406Z,8.30
2019-03-25T09:04:27.820Z,8.46
2019-03-25T09:06:55.195Z,8.58
2019-03-25T09:09:23.099Z,8.82
2019-03-25T09:11:51.653Z,9.05
2019-03-25T09:14:19.405Z,9.28
2019-03-25T09:16:46.647Z,9.48
2019-03-25T09:19:14.107Z,9.54
2019-03-25T09:21:41.441Z,9.51
2019-03-25T09:24:08.838Z,9.17
2019-03-25T09:26:36.537Z,9.39
2019-03-25T09:29:03.856Z,9.26
2019-03-25T09:31:36.659Z,9.38
2019-03-25T09:34:00.833Z,9.31
2019-03-25T09:36:28.324Z,9.33
2019-03-25T09:38:55.851Z,9.15
2019-03-25T09:41:23.172Z,9.32
2019-03-25T09:43:50.660Z,9.12
2019-03-25T09:46:18.082Z,9.32
2019-03-25T09:48:45.355Z,9.35
2019-03-25T09:51:12.764Z,9.36
2019-03-25T09:53:48.278Z,9.48
2019-03-25T09:56:15.929Z,9.56
2019-03-25T09:58:43.334Z,9.73
2019-03-25T10:01:10.755Z,9.85
2019-03-25T10:03:38.154Z,10.09
2019-03-25T10:06:05.451Z,10.26
2019-03-25T10:08:32.983Z,10.47
2019-03-25T10:11:00.705Z,10.57
2019-03-25T10:13:28.126Z,10.54
2019-03-25T10:15:55.795Z,10.53
2019-03-25T10:18:23.222Z,10.55
2019-03-25T10:20:50.591Z,10.23
2019-03-25T10:23:17.962Z,10.33
2019-03-25T10:25:45.414Z,10.16
2019-03-25T10:28:12.846Z,9.98
2019-03-25T10:30:40.230Z,9.53
2019-03-25T10:33:16.472Z,9.23
2019-03-25T10:35:43.937Z,9.15
2019-03-25T10:38:19.436Z,9.21
2019-03-25T10:40:40.622Z,9.25
2019-03-25T10:43:08.287Z,9.23
2019-03-25T10:45:37.474Z,9.32
2019-03-25T10:48:04.769Z,9.65
2019-03-25T10:50:32.224Z,9.90
2019-03-25T10:52:59.630Z,9.71
2019-03-25T10:55:26.920Z,9.93
2019-03-25T10:57:54.339Z,10.33
2019-03-25T11:00:22.127Z,10.45
2019-03-25T11:02:49.615Z,10.32
2019-03-25T11:05:20.365Z,10.46
2019-03-25T11:07:47.877Z,10.53
2019-03-25T11:10:15.640Z,10.71
2019-03-25T11:12:44.389Z,10.83
2019-03-25T11:15:11.816Z,10.73
2019-03-25T11:17:39.160Z,10.92
2019-03-25T11:20:07.151Z,11.20
2019-03-25T11:22:34.487Z,11.56
2019-03-25T11:25:02.040Z,11.33
2019-03-25T11:27:30.129Z,11.49
2019-03-25T11:29:57.811Z,11.43
2019-03-25T11:32:27.116Z,11.47
2019-03-25T11:34:55.099Z,11.74
2019-03-25T11:37:23.247Z,11.79
2019-03-25T11:39:50.802Z,11.91
2019-03-25T11:42:19.054Z,11.58
2019-03-25T11:44:46.914Z,11.56
2019-03-25T11:47:14.171Z,11.80
2019-03-25T11:49:41.835Z,11.84
2019-03-25T11:52:11.441Z,11.77
2019-03-25T11:54:39.203Z,11.85
2019-03-25T11:57:09.437Z,11.98
2019-03-25T11:59:36.956Z,11.71
2019-03-25T12:02:17.468Z,12.01
2019-03-25T12:04:43.225Z,12.47
2019-03-25T12:07:10.511Z,12.36
2019-03-25T12:09:37.831Z,12.05
2019-03-25T12:12:05.550Z,12.17
2019-03-25T12:14:33.079Z,12.51
2019-03-25T12:17:00.849Z,12.62
2019-03-25T12:19:28.219Z,12.53
2019-03-25T12:21:56.044Z,12.46
2019-03-25T12:24:24.133Z,12.43
2019-03-25T12:26:51.612Z,12.25
2019-03-25T12:29:29.691Z,12.24
2019-03-25T12:31:48.732Z,12.26
2019-03-25T12:34:16.145Z,12.40
2019-03-25T12:36:43.710Z,12.44
2019-03-25T12:39:11.221Z,12.32
2019-03-25T12:41:38.596Z,12.77
2019-03-25T12:44:06.118Z,13.02
2019-03-25T12:46:34.664Z,12.87
2019-03-25T12:49:05.332Z,12.23
2019-03-25T12:51:32.850Z,11.99
2019-03-25T12:54:00.930Z,11.73
2019-03-25T12:56:28.398Z,11.02
2019-03-25T12:58:55.878Z,10.34
2019-03-25T13:01:25.621Z,9.55
2019-03-25T13:03:54.322Z,9.07
2019-03-25T13:06:21.618Z,8.85
2019-03-25T13:08:50.824Z,8.67
2019-03-25T13:11:18.208Z,8.99
2019-03-25T13:13:45.650Z,9.11
2019-03-25T13:16:13.126Z,9.74
2019-03-25T13:18:42.439Z,10.44
2019-03-25T13:21:09.744Z,11.03
2019-03-25T13:23:37.156Z,11.72
2019-03-25T13:26:04.809Z,11.99
2019-03-25T13:28:32.355Z,11.65
2019-03-25T13:30:59.921Z,11.53
2019-03-25T13:33:29.390Z,11.37
2019-03-25T13:35:56.682Z,11.55
2019-03-25T13:38:27.356Z,11.10
2019-03-25T13:40:56.822Z,11.22
2019-03-25T13:43:27.092Z,11.14
2019-03-25T13:46:05.531Z,11.13
2019-03-25T13:48:30.370Z,11.06
2019-03-25T13:50:57.626Z,11.10
2019-03-25T13:53:25.764Z,11.01
2019-03-25T13:55:53.857Z,10.96
2019-03-25T13:58:21.466Z,10.27
2019-03-25T14:00:49.211Z,9.23
2019-03-25T14:03:17.748Z,7.73
2019-03-25T14:05:45.274Z,6.73
2019-03-25T14:08:12.867Z,6.48
2019-03-25T14:10:40.212Z,6.65
2019-03-25T14:13:07.486Z,7.11
2019-03-25T14:15:34.900Z,7.79
2019-03-25T14:18:02.190Z,7.79
2019-03-25T14:20:29.843Z,8.08
2019-03-25T14:22:57.100Z,8.31
2019-03-25T14:25:24.374Z,8.65
2019-03-25T14:27:52.016Z,9.14
2019-03-25T14:30:20.504Z,10.08
2019-03-25T14:32:47.921Z,10.91
2019-03-25T14:35:17.876Z,11.76
2019-03-25T14:37:45.366Z,12.33
2019-03-25T14:40:12.893Z,12.76
2019-03-25T14:42:40.665Z,13.02
2019-03-25T14:45:08.127Z,13.50
2019-03-25T14:47:36.502Z,13.54
2019-03-25T14:50:04.806Z,13.68
2019-03-25T14:52:32.078Z,14.09
2019-03-25T14:54:59.461Z,13.54
2019-03-25T14:57:26.988Z,14.09
2019-03-25T14:59:57.724Z,14.53
2019-03-25T15:02:25.012Z,14.56
2019-03-25T15:04:52.315Z,13.56
2019-03-25T15:07:19.708Z,13.85
2019-03-25T15:09:47.022Z,14.42
2019-03-25T15:12:14.337Z,13.62
2019-03-25T15:14:42.282Z,12.89
2019-03-25T15:17:09.768Z,12.34
2019-03-25T15:19:37.096Z,12.25
2019-03-25T15:22:04.483Z,12.22
2019-03-25T15:24:31.777Z,11.83
2019-03-25T15:26:59.265Z,11.91
2019-03-25T15:29:26.727Z,12.02
2019-03-25T15:31:54.006Z,12.17
2019-03-25T15:34:21.310Z,11.63
2019-03-25T15:36:49.706Z,11.26
2019-03-25T15:39:17.072Z,11.40
2019-03-25T15:41:44.634Z,11.38
2019-03-25T15:44:11.982Z,11.37
2019-03-25T15:46:40.058Z,11.61
2019-03-25T15:49:07.433Z,11.66
2019-03-25T15:51:35.093Z,12.03
2019-03-25T15:54:02.375Z,12.22
2019-03-25T15:56:29.828Z,11.89
2019-03-25T15:58:57.650Z,11.48
2019-03-25T16:01:25.450Z,10.87
2019-03-25T16:03:52.914Z,10.77
2019-03-25T16:06:22.284Z,10.72
2019-03-25T16:08:49.750Z,10.64
2019-03-25T16:11:17.111Z,10.78
2019-03-25T16:13:44.451Z,10.65
2019-03-25T16:16:12.148Z,10.62
2019-03-25T16:18:40.376Z,10.44
2019-03-25T16:21:08.654Z,10.40
2019-03-25T16:23:38.075Z,10.24
2019-03-25T16:26:07.801Z,10.27
2019-03-25T16:28:35.056Z,10.53
2019-03-25T16:31:02.487Z,10.36
2019-03-25T16:33:29.746Z,10.25
2019-03-25T16:35:57.080Z,10.15
2019-03-25T16:38:25.022Z,9.86
2019-03-25T16:40:52.730Z,9.88
2019-03-25T16:43:20.043Z,9.94
2019-03-25T16:45:47.542Z,10.13
2019-03-25T16:48:14.932Z,10.31
2019-03-25T16:50:42.370Z,10.52
2019-03-25T16:53:10.619Z,10.57
2019-03-25T16:55:38.152Z,10.44
2019-03-25T16:58:05.599Z,10.53
2019-03-25T17:00:33.308Z,10.48
2019-03-25T17:03:00.612Z,10.47
2019-03-25T17:05:28.312Z,10.54
2019-03-25T17:07:55.806Z,10.44
2019-03-25T17:10:23.115Z,10.28
2019-03-25T17:12:50.551Z,10.24
2019-03-25T17:15:17.972Z,10.19
2019-03-25T17:17:46.407Z,10.12
2019-03-25T17:20:17.059Z,10.02
2019-03-25T17:22:48.484Z,10.10
2019-03-25T17:25:18.919Z,9.99
2019-03-25T17:27:48.738Z,9.84
2019-03-25T17:30:16.123Z,9.68
2019-03-25T17:32:43.649Z,9.60
2019-03-25T17:35:11.060Z,9.37
2019-03-25T17:37:41.134Z,8.79
2019-03-25T17:40:08.474Z,8.40
2019-03-25T17:42:35.943Z,8.03
2019-03-25T17:45:03.871Z,8.01
2019-03-25T17:47:31.894Z,7.73
2019-03-25T17:49:59.190Z,7.33
2019-03-25T17:52:26.611Z,7.51
2019-03-25T17:54:54.054Z,7.48
2019-03-25T17:57:21.355Z,7.56
2019-03-25T17:59:48.685Z,7.78
2019-03-25T18:02:16.131Z,7.97
2019-03-25T18:04:43.541Z,8.14
2019-03-25T18:07:11.005Z,7.85
2019-03-25T18:09:41.037Z,7.87
2019-03-25T18:12:08.466Z,7.85
2019-03-25T18:14:35.847Z,7.96
2019-03-25T18:17:03.284Z,8.18
2019-03-25T18:19:30.714Z,8.23
2019-03-25T18:21:58.106Z,8.28
2019-03-25T18:24:25.645Z,8.44
2019-03-25T18:26:53.009Z,8.46
2019-03-25T18:29:20.401Z,8.27
2019-03-25T18:31:48.537Z,8.23
2019-03-25T18:34:15.962Z,8.33
2019-03-25T18:36:43.301Z,8.32
2019-03-25T18:39:10.575Z,8.26
2019-03-25T18:41:37.877Z,8.34
2019-03-25T18:44:05.256Z,8.42
2019-03-25T18:46:33.478Z,8.35
2019-03-25T18:49:00.933Z,8.28
2019-03-25T18:51:31.024Z,8.22
2019-03-25T18:53:58.392Z,8.28
2019-03-25T18:56:25.678Z,8.24
2019-03-25T18:58:53.108Z,8.32
2019-03-25T19:01:21.400Z,8.37
2019-03-25T19:03:48.730Z,8.53
2019-03-25T19:06:16.366Z,8.56
2019-03-25T19:08:43.913Z,8.63
2019-03-25T19:11:11.208Z,8.65
2019-03-25T19:13:38.612Z,8.32
2019-03-25T19:16:05.990Z,8.10
2019-03-25T19:18:33.310Z,8.18
2019-03-25T19:21:00.821Z,8.21
2019-03-25T19:23:28.499Z,8.05
2019-03-25T19:25:55.786Z,7.89
2019-03-25T19:28:23.320Z,7.97
2019-03-25T19:30:50.646Z,7.91
2019-03-25T19:33:17.939Z,7.75
2019-03-25T19:35:45.310Z,7.74
2019-03-25T19:38:12.739Z,8.02
2019-03-25T19:40:40.352Z,7.98
2019-03-25T19:43:07.662Z,7.86
2019-03-25T19:45:35.776Z,8.21
2019-03-25T19:48:03.224Z,7.97
2019-03-25T19:50:30.599Z,7.70
2019-03-25T19:52:58.085Z,7.90
2019-03-25T19:55:25.583Z,8.09
2019-03-25T19:57:52.887Z,8.08
2019-03-25T20:00:34.737Z,7.74
2019-03-25T20:03:02.201Z,7.48
2019-03-25T20:05:29.929Z,7.48
2019-03-25T20:07:57.523Z,7.48
2019-03-25T20:10:29.531Z,7.32
2019-03-25T20:12:57.427Z,7.24
2019-03-25T20:15:25.131Z,7.11
2019-03-25T20:17:52.728Z,7.08
2019-03-25T20:20:20.210Z,7.08
2019-03-25T20:22:47.985Z,6.97
2019-03-25T20:25:15.395Z,7.04
2019-03-25T20:27:42.774Z,7.21
2019-03-25T20:30:10.235Z,7.18
2019-03-25T20:32:37.819Z,7.18
2019-03-25T20:35:05.449Z,7.20
2019-03-25T20:37:33.983Z,7.20
2019-03-25T20:40:04.934Z,7.08
2019-03-25T20:42:32.224Z,7.00
2019-03-25T20:44:59.528Z,6.98
2019-03-25T20:47:26.859Z,7.12
2019-03-25T20:49:54.661Z,7.17
2019-03-25T20:52:24.366Z,7.11
2019-03-25T20:54:54.050Z,7.15
2019-03-25T20:57:21.336Z,7.15
2019-03-25T20:59:49.145Z,7.32
2019-03-25T21:02:16.647Z,7.47
2019-03-25T21:04:44.519Z,7.53
2019-03-25T21:07:11.774Z,7.56
2019-03-25T21:09:39.324Z,7.54
2019-03-25T21:12:06.806Z,7.69
2019-03-25T21:14:34.174Z,7.73
2019-03-25T21:17:01.436Z,7.79
2019-03-25T21:19:29.259Z,7.79
2019-03-25T21:21:59.306Z,7.89
2019-03-25T21:24:26.604Z,7.98
2019-03-25T21:26:56.244Z,8.03
2019-03-25T21:29:24.467Z,8.16
2019-03-25T21:31:52.652Z,8.12
2019-03-25T21:34:21.798Z,8.12
2019-03-25T21:36:49.141Z,8.11
2019-03-25T21:39:16.577Z,8.14
2019-03-25T21:41:44.071Z,8.07
2019-03-25T21:44:11.489Z,7.97
2019-03-25T21:46:39.361Z,7.94
2019-03-25T21:49:09.069Z,7.80
2019-03-25T21:51:38.724Z,7.79
2019-03-25T21:54:06.148Z,7.61
2019-03-25T21:56:33.539Z,7.69
2019-03-25T21:59:01.066Z,7.48
2019-03-25T22:01:29.141Z,7.48
2019-03-25T22:04:00.036Z,7.49
2019-03-25T22:06:27.355Z,7.44
2019-03-25T22:08:54.745Z,7.35
2019-03-25T22:11:22.850Z,7.54
2019-03-25T22:13:50.135Z,7.48
2019-03-25T22:16:17.418Z,7.41
2019-03-25T22:18:44.961Z,7.26
2019-03-25T22:21:12.565Z,7.46
2019-03-25T22:23:39.938Z,7.56
2019-03-25T22:26:07.218Z,7.44
2019-03-25T22:28:35.964Z,7.44
2019-03-25T22:31:03.659Z,7.64
2019-03-25T22:33:30.992Z,7.74
2019-03-25T22:35:58.484Z,7.85
2019-03-25T22:38:25.967Z,7.79
2019-03-25T22:40:53.592Z,7.79
2019-03-25T22:43:21.474Z,7.44
2019-03-25T22:45:48.887Z,7.44
2019-03-25T22:48:16.647Z,7.19
2019-03-25T22:50:44.312Z,7.19
2019-03-25T22:53:12.190Z,7.24
2019-03-25T22:55:39.722Z,7.24
2019-03-25T22:58:09.568Z,7.32
2019-03-25T23:00:47.258Z,7.28
2019-03-25T23:03:15.068Z,7.35
2019-03-25T23:05:42.410Z,7.30
2019-03-25T23:08:09.732Z,7.30
2019-03-25T23:10:37.241Z,7.23
2019-03-25T23:13:04.543Z,7.23
2019-03-25T23:15:31.930Z,7.18
2019-03-25T23:17:59.554Z,7.07
2019-03-25T23:20:33.584Z,7.10
2019-03-25T23:23:07.026Z,7.07
2019-03-25T23:25:34.414Z,7.03
2019-03-25T23:28:01.819Z,6.85
2019-03-25T23:30:29.122Z,6.86
2019-03-25T23:32:56.594Z,6.83
2019-03-25T23:35:23.836Z,6.76
2019-03-25T23:37:51.136Z,6.71
2019-03-25T23:40:18.401Z,6.71
2019-03-25T23:42:46.029Z,6.66
2019-03-25T23:45:13.760Z,6.70
2019-03-25T23:47:41.144Z,6.68
2019-03-25T23:50:08.462Z,6.60
2019-03-25T23:52:36.213Z,6.60
2019-03-25T23:55:03.920Z,6.65
2019-03-25T23:57:31.567Z,6.65
2019-03-25T23:59:58.847Z,6.62
